04:14
Airports
Links
Donate
Help keep this website running!
PayPal
Bitcoin
METAR
LFPG 280400Z 17004KT CAVOK 09/05 Q1020 NOSIG
Current Weather Conditions at LFPG
VFR 04:00:00 28-03-17
Altimeter:30.12 hg
Temp:9.0°c 48°f
Dew point:5.0°c 41°f
Wind:4 knots, 4.6 mph, 2 m/s, from 170°
Visibility:6.21 statute miles
(CAVOK)
No significant weather changes expected within 2 hours.
Past METAR reports
VFR 03:30:00 28-03-17
Altimeter:30.12 hg
Temp:9.0°c 48°f
Dew point:5.0°c 41°f
Wind:4 knots, 4.6 mph, 2 m/s, from 170°
Visibility:6.21 statute miles
(CAVOK)
No significant weather changes expected within 2 hours.
LFPG 280330Z 17004KT CAVOK 09/05 Q1020 NOSIG
VFR 03:00:00 28-03-17
Altimeter:30.12 hg
Temp:10.0°c 50°f
Dew point:5.0°c 41°f
Wind:4 knots, 4.6 mph, 2 m/s, from 180°
Visibility:6.21 statute miles
(CAVOK)
No significant weather changes expected within 2 hours.
LFPG 280300Z 18004KT CAVOK 10/05 Q1020 NOSIG
VFR 02:30:00 28-03-17
Altimeter:30.12 hg
Temp:10.0°c 50°f
Dew point:5.0°c 41°f
Wind:3 knots, 3.5 mph, 2 m/s, from 150°
Visibility:6.21 statute miles
(CAVOK)
No significant weather changes expected within 2 hours.
LFPG 280230Z 15003KT CAVOK 10/05 Q1020 NOSIG
VFR 02:00:00 28-03-17
Altimeter:30.12 hg
Temp:10.0°c 50°f
Dew point:5.0°c 41°f
Wind:3 knots, 3.5 mph, 2 m/s,
Variable direction
Visibility:6.21 statute miles
(CAVOK)
No significant weather changes expected within 2 hours.
LFPG 280200Z VRB03KT CAVOK 10/05 Q1020 NOSIG
VFR 01:30:00 28-03-17
Altimeter:30.12 hg
Temp:10.0°c 50°f
Dew point:4.0°c 39°f
Wind:2 knots, 2.3 mph, 1 m/s, from 130°
Visibility:6.21 statute miles
(CAVOK)
No significant weather changes expected within 2 hours.
LFPG 280130Z 13002KT CAVOK 10/04 Q1020 NOSIG
VFR 01:00:00 28-03-17
Altimeter:30.12 hg
Temp:11.0°c 52°f
Dew point:4.0°c 39°f
Wind:4 knots, 4.6 mph, 2 m/s, from 150°
Visibility:6.21 statute miles
(CAVOK)
No significant weather changes expected within 2 hours.
LFPG 280100Z 15004KT CAVOK 11/04 Q1020 NOSIG
TAF
TAF LFPG 272300Z 2800/2906 10005KT CAVOK BECMG 2808/2810 22010KT PROB30 TEMPO 2813/2818 SCT040TCU TX18/2813Z TN06/2806Z
Forecast at LFPG
00:00 28-03-17 to 08:00 28-03-17
NSW
Wind:5 Knots from 100°
Visibility:6.21 statute miles
NSC
BECMG 08:00 28-03-17 to 06:00 29-03-17
NSW
Wind:10 Knots from 220°
Visibility:6.21 statute miles
NSC
TEMPO 13:00 28-03-17 to 18:00 28-03-17
30%
4000SCT Scattered